Tiempo atmosférico en la estación meteorológica de Doña Mencia, Córdoba (650 m.)



Fecha
DESCASC
Temp. máxima en grados centígrados (hora)
DESCASC
Temp. mínima en grados centígrados (hora)
DESCASC
Temp. media en grados centígrados
DESCASC
Racha de viento máxima en m/sg (hora)
DESCASC
Velocidad máxima media en intervalos de 10 minutos(hora)
DESCASC
Precipitaciones diarias en mm
DESCASC
Precipitaciones de 00:00 a 06:00 en mm
DESCASC
Precipitaciones de 06:00 a 12:00 en mm
DESCASC
Precipitaciones de 12:00 a 18:00 en mm
DESCASC
Precipitaciones de 18:00 a 24:00 en mm
DESCASC
18-01-2018 12.9 (14:10) 8.1 (03:50) 10.5 7.22 (00:10) 6.11 (00:10) 0 0 0 0 0
17-01-2018 15.6 (15:10) 4.5 (08:00) 10.1 8.33 (20:20) 5.56 (12:10) 0 0 0 0 0
16-01-2018 14.4 (15:40) 3.3 (06:10) 8.8 5.56 (21:20) 4.44 (07:30) 0 0 0 0 0
15-01-2018 8.5 (16:30) 1.5 (09:00) 5 6.94 (08:50) 5.28 (14:20) 0 0 0 0 0
14-01-2018 6.2 (10:40) 2.2 (00:00) 4.2 5.83 (11:30) 3.89 (11:30) 9.8 0 5.5 4.2 0.1
13-01-2018 8.6 (12:40) 4.6 (00:00) 6.6 9.17 (17:40) 5.56 (17:50) 2.9 0 0 2.9 0
12-01-2018 11.9 (14:20) 2.4 (00:00) 7.1 6.67 (11:50) 5 (11:50) 0 0 0 0 0
11-01-2018 9.1 (16:00) 3.6 (00:00) 6.4 8.61 (16:00) 5.28 (16:00) 0.1 0 0 0.1 0
10-01-2018 10.7 (01:00) 5.8 (00:00) 8.3 16.39 (20:30) 9.72 (20:30) 8.7 4.4 0.4 0 3.9
09-01-2018 9.9 (23:59) 1.5 (00:00) 5.7 12.5 (23:59) 6.67 (15:10) 1 0 0 0 1
08-01-2018 7.3 (14:10) 1.9 (00:00) 4.6 6.39 (09:40) 4.17 (09:40) 1.7 1.2 0 0.5 0
07-01-2018 3.6 (16:50) 0.2 (00:00) 1.9 7.5 (00:30) 4.72 (00:30) 0 0 0 0 0
06-01-2018 10.6 (00:20) 1.1 (00:00) 5.9 13.89 (04:20) 7.5 (04:20) 32.5 7.7 23 1.8 0
05-01-2018 11.6 (15:50) 8 (00:00) 9.8 13.61 (23:20) 6.67 (22:40) 0 0 0 0 0
04-01-2018 9.8 (22:30) 6.4 (09:00) 8.1 11.67 (02:50) 7.78 (02:40) 0 0 0 0 0
03-01-2018 12 (15:10) 7 (00:00) 9.5 6.67 (11:30) 4.17 (09:40) 0 0 0 0 0
02-01-2018 12.5 (15:40) 4.6 (00:00) 8.5 6.11 (16:30) 3.89 (16:40) 0 0 0 0 0
01-01-2018 13 (15:40) 5.2 (00:00) 9.1 7.22 (06:40) 5 (06:30) 0 0 0 0 0
31-12-2017 12.1 (00:00) 7.4 (00:00) 9.8 10.56 (15:20) 6.39 (15:20) 0 0 0 0 0
30-12-2017 17.2 (15:40) 8.9 (00:00) 13.1 8.33 (12:20) 4.17 (10:40) 0 0 0 0 0
29-12-2017 11.5 (20:30) 9.5 (00:00) 10.5 7.5 (02:30) 4.44 (00:30) 1.1 0.2 0.2 0.7 0
28-12-2017 11 (17:00) 7 (00:00) 9 13.89 (04:00) 8.33 (05:00) 0.2 0 0.1 0 0.1
27-12-2017 9.5 (16:00) 6.3 (00:00) 7.9 18.89 (05:50) 13.33 (06:00) 9.4 3.6 5.7 0.1 0
26-12-2017 9.2 (15:40) 6.1 (00:00) 7.6 12.5 (06:40) 7.78 (23:59) 3.6 0.7 2.9 0 0
25-12-2017 11.9 (13:00) 6.5 (00:00) 9.2 8.89 (23:59) 5.83 (22:30) 0.8 0 0 0.6 0.2
24-12-2017 15.1 (12:30) 6.6 (00:00) 10.9 5.28 (08:50) 3.61 (08:50) 0 0 0 0 0
23-12-2017 14.9 (16:10) 6.9 (00:00) 10.9 6.39 (23:20) 3.61 (01:40) 0 0 0 0 0
22-12-2017 14.4 (17:10) 5.7 (00:00) 10 4.44 (05:50) 3.61 (05:20) 0 0 0 0 0

Gráficas

Temp. máximas Temp. mínimas Temp. medias Precipitaciones Rachas de viento máximas Velocidades máximas media en intervalos de 10 minutos

Datos horarios

Fecha y hora oficial Temperatura (ºC) Velocidad del viento (km/h) Dirección del viento Racha (km/h) Dirección de racha Precipitación (mm) Presión (hPa) Tendencia (hPa) Humedad (%)
2018-01-20 23:00:00 9 6 Noroeste 18 Noroeste 0 -- -- 70
2018-01-20 22:00:00 8.6 8 Noroeste 13 Noroeste 0 -- -- 80
2018-01-20 21:00:00 9 7 Noroeste 14 Noroeste 0 -- -- 79
2018-01-20 20:00:00 9.4 8 Noroeste 15 Noroeste 0 -- -- 73
2018-01-20 19:00:00 10.2 9 Noroeste 15 Noroeste 0 -- -- 69
2018-01-20 18:00:00 12.9 7 Noroeste 15 Noroeste 0 -- -- 53
2018-01-20 17:00:00 14.3 7 Noroeste 16 Noroeste 0 -- -- 44
2018-01-20 16:00:00 14.2 7 Oeste 11 Noroeste 0 -- -- 52
2018-01-20 15:00:00 13.1 6 Noroeste 14 Noroeste 0 -- -- 58
2018-01-20 14:00:00 13.1 9 Noroeste 15 Noroeste 0 -- -- 56
2018-01-20 13:00:00 14.3 4 Noroeste 9 Noroeste 0 -- -- 47
2018-01-20 12:00:00 13.9 5 Este 11 Este 0 -- -- 56
2018-01-20 11:00:00 11.3 8 Este 12 Este 0 -- -- 70
2018-01-20 10:00:00 8.5 2 Este 9 Este 0 -- -- 82
2018-01-20 09:00:00 6.5 0 Calma 4 Este 0 -- -- 85
2018-01-20 08:00:00 6.1 3 Sudeste 6 Norte 0 -- -- 83
2018-01-20 07:00:00 7.8 0 Calma 4 Norte 0 -- -- 77
2018-01-20 06:00:00 7.8 0 Calma 17 Este 0 -- -- 77
2018-01-20 05:00:00 7.5 11 Este 15 Este 0 -- -- 80
2018-01-20 04:00:00 7.5 4 Norte 8 Noroeste 0 -- -- 82
2018-01-20 03:00:00 7.9 5 Norte 10 Noroeste 0 -- -- 77
2018-01-20 02:00:00 8.6 2 Norte 5 Norte 0 -- -- 72
2018-01-20 01:00:00 8.8 2 Norte 9 Noroeste 0 -- -- 71
2018-01-20 00:00:00 8.8 6 Norte 9 Norte 0 -- -- 68
2018-01-19 23:00:00 9.3 3 Norte 6 Norte 0 -- -- 64
2018-01-19 22:00:00 9.3 2 Norte 5 Norte 0 -- -- 64
2018-01-19 21:00:00 9.6 0 Calma 7 Noroeste 0 -- -- 61
2018-01-19 20:00:00 9.7 6 Norte 9 Norte 0 -- -- 60
2018-01-19 19:00:00 10.9 0 Calma 5 Nordeste 0 -- -- 51
2018-01-19 18:00:00 13.5 3 Oeste 7 Oeste 0 -- -- 46
2018-01-19 17:00:00 14.2 3 Oeste 9 Oeste 0 -- -- 46
2018-01-19 16:00:00 13.5 2 Sudoeste 17 Noroeste 0 -- -- 49
2018-01-19 15:00:00 12.6 7 Noroeste 19 Noroeste 0 -- -- 53
2018-01-19 14:00:00 12.3 7 Noroeste 17 Noroeste 0 -- -- 55
2018-01-19 13:00:00 11.8 6 Noroeste 11 Noroeste 0 -- -- 58
2018-01-19 12:00:00 11 0 Calma 6 Oeste 0 -- -- 58
2018-01-19 11:00:00 9 0 Calma 6 Noroeste 0 -- -- 64
2018-01-19 10:00:00 8.2 0 Calma 6 Noroeste 0 -- -- 66
2018-01-19 09:00:00 7.9 2 Norte 7 Noroeste 0 -- -- 64
2018-01-19 08:00:00 7.7 3 Norte 9 Noroeste 0 -- -- 64
2018-01-19 07:00:00 8.6 2 Noroeste 8 Noroeste 0 -- -- 61
2018-01-19 06:00:00 8.3 0 Calma 4 Norte 0 -- -- 61
2018-01-19 05:00:00 8.9 0 Calma 7 Nordeste 0 -- -- 59
2018-01-19 04:00:00 8.4 0 Calma 15 Este 0 -- -- 59
2018-01-19 03:00:00 9.2 11 Este 14 Este 0 -- -- 58
2018-01-19 02:00:00 8.9 4 Norte 13 Este 0 -- -- 58
2018-01-19 01:00:00 9.9 10 Este 18 Sudeste 0 -- -- 53
2018-01-19 00:00:00 10.3 9 Este 14 Este 0 -- -- 52
2018-01-18 23:00:00 10.5 11 Este 19 Sudeste 0 -- -- 54
2018-01-18 22:00:00 9.5 15 Este 19 Este 0 -- -- 56
2018-01-18 21:00:00 9.3 8 Este 14 Este 0 -- -- 61
2018-01-18 20:00:00 9.6 10 Este 15 Este 0 -- -- 60
2018-01-18 19:00:00 9.8 5 Este 8 Este 0 -- -- 59
2018-01-18 18:00:00 10.3 0 Calma 4 Sudeste 0 -- -- 58
2018-01-18 17:00:00 10.7 2 Noroeste 8 Noroeste 0 -- -- 55
2018-01-18 16:00:00 11.5 6 Noroeste 10 Noroeste 0 -- -- 54
2018-01-18 15:00:00 12.5 3 Noroeste 10 Noroeste 0 -- -- 50
2018-01-18 14:00:00 12.1 5 Noroeste 12 Noroeste 0 -- -- 51
2018-01-18 13:00:00 11.7 7 Noroeste 13 Noroeste 0 -- -- 50
2018-01-18 12:00:00 11.9 3 Oeste 6 Oeste 0 -- -- 49
2018-01-18 11:00:00 10.7 4 Noroeste 8 Noroeste 0 -- -- 50
2018-01-18 10:00:00 11 0 Calma 5 Noroeste 0 -- -- 49
2018-01-18 09:00:00 10.3 2 Norte 7 Noroeste 0 -- -- 46
2018-01-18 08:00:00 9.3 3 Norte 6 Noroeste 0 -- -- 50
2018-01-18 07:00:00 10.2 0 Calma 13 Nordeste 0 -- -- 47
2018-01-18 06:00:00 10.3 2 Este 12 Nordeste 0 -- -- 47
2018-01-18 05:00:00 8.6 10 Este 13 Este 0 -- -- 55
2018-01-18 04:00:00 8.7 5 Nordeste 10 Nordeste 0 -- -- 57
2018-01-18 03:00:00 8.8 0 Calma 8 Este 0 -- -- 58
2018-01-18 02:00:00 9.9 0 Calma 24 Este 0 -- -- 54
2018-01-18 01:00:00 9.8 17 Este 26 Este 0 -- -- 60
2018-01-18 00:00:00 9.3 19 Este 23 Este 0 -- -- 59
2018-01-17 23:00:00 9.4 17 Este 19 Este 0 -- -- 56
2018-01-17 22:00:00 10.5 2 Sudeste 26 Sudeste 0 -- -- 53
2018-01-17 21:00:00 10.3 12 Sudeste 30 Sudeste 0 -- -- 58
2018-01-17 20:00:00 11 17 Sudeste 27 Sudeste 0 -- -- 59
2018-01-17 19:00:00 11.5 12 Sudeste 26 Sudeste 0 -- -- 58
2018-01-17 18:00:00 12.9 11 Sudeste 28 Sudeste 0 -- -- 54
2018-01-17 17:00:00 14.1 7 Este 24 Nordeste 0 -- -- 52
2018-01-17 16:00:00 14.8 6 Este 25 Este 0 -- -- 51
2018-01-17 15:00:00 15 3 Este 22 Sudeste 0 -- -- 48
2018-01-17 14:00:00 13.9 5 Sudeste 24 Sudeste 0 -- -- 52
2018-01-17 13:00:00 12.9 2 Sudeste 30 Sudeste 0 -- -- 53
2018-01-17 12:00:00 10.9 15 Sudeste 28 Este 0 -- -- 58
2018-01-17 11:00:00 10.1 9 Sudeste 26 Sudeste 0 -- -- 60
2018-01-17 10:00:00 6.9 14 Este 24 Este 0 -- -- 68
2018-01-17 09:00:00 5 10 Sudeste 17 Este 0 -- -- 70
2018-01-17 08:00:00 4.5 0 Calma 17 Nordeste 0 -- -- 72
2018-01-17 07:00:00 6.4 13 Este 20 Este 0 -- -- 64
2018-01-17 06:00:00 6.5 14 Este 20 Este 0 -- -- 64
2018-01-17 05:00:00 6.5 12 Este 16 Este 0 -- -- 68
2018-01-17 04:00:00 7.7 9 Este 15 Este 0 -- -- 63
2018-01-17 03:00:00 7.6 4 Este 18 Este 0 -- -- 64
2018-01-17 02:00:00 8.2 7 Este 13 Este 0 -- -- 62
2018-01-17 01:00:00 8.3 5 Este 16 Sudeste 0 -- -- 63
2018-01-17 00:00:00 8.4 9 Este 19 Sudeste 0 -- -- 63
2018-01-16 23:00:00 8.6 12 Sudeste 19 Sudeste 0 -- -- 61
2018-01-16 22:00:00 8.7 8 Este 20 Sudeste 0 -- -- 58
2018-01-16 21:00:00 9.6 12 Sudeste 17 Sudeste 0 -- -- 57
2018-01-16 20:00:00 8.4 13 Sudeste 18 Sudeste 0 -- -- 55
2018-01-16 19:00:00 8.7 10 Este 13 Este 0 -- -- 50
2018-01-16 18:00:00 11.4 7 Este 13 Este 0 -- -- 42
2018-01-16 17:00:00 13.6 6 Nordeste 14 Sudeste 0 -- -- 41
2018-01-16 16:00:00 14 6 Este 14 Sudeste 0 -- -- 39
2018-01-16 15:00:00 13.9 5 Sudeste 13 Noroeste 0 -- -- 40
2018-01-16 14:00:00 11.6 11 Noroeste 16 Noroeste 0 -- -- 49
2018-01-16 13:00:00 12 8 Sudeste 14 Sudeste 0 -- -- 49
2018-01-16 12:00:00 10 4 Oeste 13 Este 0 -- -- 51
2018-01-16 11:00:00 9 6 Este 15 Este 0 -- -- 56
2018-01-16 10:00:00 6.3 8 Este 15 Este 0 -- -- 64
2018-01-16 09:00:00 5 12 Este 16 Este 0 -- -- 68
2018-01-16 08:00:00 3.9 5 Nordeste 18 Este 0 -- -- 72
2018-01-16 07:00:00 4.1 12 Este 14 Este 0 -- -- 72
2018-01-16 06:00:00 3.4 8 Este 9 Este 0 -- -- 75
2018-01-16 05:00:00 4 2 Sudeste 11 Nordeste 0 -- -- 71
2018-01-16 04:00:00 4.1 2 Nordeste 13 Este 0 -- -- 72
2018-01-16 03:00:00 4.6 10 Este 13 Sudeste 0 -- -- 70
2018-01-16 02:00:00 4.5 9 Este 11 Este 0 -- -- 69
2018-01-16 01:00:00 5.3 6 Este 14 Sudeste 0 -- -- 66
2018-01-16 00:00:00 4.6 12 Sudeste 15 Sudeste 0 -- -- 72
2018-01-15 23:00:00 4.4 10 Sudeste 14 Sudeste 0 -- -- 73
2018-01-15 22:00:00 5 5 Este 13 Sudeste 0 -- -- 71
2018-01-15 21:00:00 4.6 9 Sudeste 12 Sudeste 0 -- -- 72
2018-01-15 20:00:00 4.6 10 Sudeste 13 Sudeste 0 -- -- 77
2018-01-15 19:00:00 5.5 4 Este 13 Sudeste 0 -- -- 72
2018-01-15 18:00:00 7.9 9 Sudeste 19 Sudeste 0 -- -- 65
2018-01-15 17:00:00 8.3 13 Sudeste 21 Este 0 -- -- 65
2018-01-15 16:00:00 7.9 14 Sudeste 20 Sudeste 0 -- -- 66
2018-01-15 15:00:00 6.9 10 Este 24 Sudeste 0 -- -- 79
2018-01-15 14:00:00 4.2 13 Sudeste 20 Sudeste 0 -- -- 91
2018-01-15 13:00:00 6 12 Sudeste 17 Sudeste 0 -- -- 78
2018-01-15 12:00:00 5.8 6 Sudeste 18 Sudeste 0 -- -- 80
2018-01-15 11:00:00 4.6 8 Sudeste 15 Sur 0 -- -- 89
2018-01-15 10:00:00 2.7 0 Calma 17 Sur 0 -- -- 99
2018-01-15 09:00:00 1.6 0 Calma 25 Sudeste 0 -- -- 99
2018-01-15 08:00:00 1.8 11 Sudeste 23 Sudeste 0 -- -- 99
2018-01-15 07:00:00 1.8 13 Sudeste 22 Sudeste 0 -- -- 99
2018-01-15 06:00:00 2.2 5 Sudeste 15 Sudeste 0 -- -- 96
2018-01-15 05:00:00 2.2 4 Nordeste 15 Nordeste 0 -- -- 95
2018-01-15 04:00:00 2.7 6 Sur 21 Sudeste 0 -- -- 95
2018-01-15 03:00:00 2.5 9 Sudeste 20 Sudeste 0 -- -- 98
2018-01-15 02:00:00 2.6 0 Calma 10 Sur 0 -- -- 98
2018-01-15 01:00:00 2.4 0 Calma 13 Sudeste 0 -- -- 99
2018-01-15 00:00:00 2.4 9 Sudeste 13 Sudeste 0 -- -- 99
2018-01-14 23:00:00 2.5 10 Sudeste 14 Sudeste 0.1 -- -- 99
2018-01-14 22:00:00 3.4 4 Sudeste 10 Sudeste 0 -- -- 99
2018-01-14 21:00:00 3.6 5 Sudeste 8 Sudeste 0 -- -- 99
2018-01-14 20:00:00 3.7 0 Calma 3 Este 0 -- -- 99
2018-01-14 19:00:00 3.5 0 Calma 12 Sudeste 0 -- -- 99
2018-01-14 18:00:00 4.3 6 Este 11 Este 0.2 -- -- 99
2018-01-14 17:00:00 4.1 0 Calma 13 Norte 0.4 -- -- 99
2018-01-14 16:00:00 4.2 5 Norte 19 Noroeste 2.1 -- -- 99
2018-01-14 15:00:00 4.9 9 Oeste 17 Oeste 0.2 -- -- 99
2018-01-14 14:00:00 5.4 10 Oeste 15 Oeste 0.2 -- -- 99
2018-01-14 13:00:00 5.1 5 Noroeste 8 Noroeste 1.1 -- -- 99
2018-01-14 12:00:00 4.4 5 Sudoeste 21 Norte 4.9 -- -- 99
2018-01-14 11:00:00 5.7 4 Oeste 10 Noroeste 0.6 -- -- 95
2018-01-14 10:00:00 5.8 2 Noroeste 7 Noroeste 0 -- -- 96
2018-01-14 09:00:00 5.3 3 Noroeste 12 Noroeste 0 -- -- 97
2018-01-14 08:00:00 5.2 4 Noroeste 13 Noroeste 0 -- -- 97
2018-01-14 07:00:00 4.5 6 Noroeste 12 Noroeste 0 -- -- 99
2018-01-14 06:00:00 4.3 6 Noroeste 13 Noroeste 0 -- -- 99
2018-01-14 05:00:00 4.4 6 Noroeste 17 Oeste 0 -- -- 99
2018-01-14 04:00:00 5.1 9 Oeste 20 Oeste 0 -- -- 99
2018-01-14 03:00:00 4.9 9 Oeste 17 Oeste 0 -- -- 99
2018-01-14 02:00:00 5.1 8 Oeste 14 Oeste 0 -- -- 99
2018-01-14 01:00:00 5.3 8 Noroeste 17 Noroeste 0 -- -- 99
2018-01-14 00:00:00 5.1 8 Noroeste 14 Noroeste 0 -- -- 99
2018-01-13 23:00:00 5 7 Norte 14 Noroeste 0 -- -- 99
2018-01-13 22:00:00 4.8 5 Noroeste 17 Noroeste 0 -- -- 99
2018-01-13 21:00:00 4.9 8 Noroeste 17 Noroeste 0 -- -- 99
2018-01-13 20:00:00 5.5 9 Oeste 20 Oeste 0 -- -- 99
2018-01-13 19:00:00 6 12 Noroeste 26 Oeste 0 -- -- 97
2018-01-13 18:00:00 6.9 16 Oeste 33 Oeste 0 -- -- 86
2018-01-13 17:00:00 6.5 12 Oeste 29 Oeste 0.5 -- -- 94
2018-01-13 16:00:00 4.7 4 Sur 18 Noroeste 2 -- -- 99
2018-01-13 15:00:00 6 7 Noroeste 25 Noroeste 0.4 -- -- 74
2018-01-13 14:00:00 8.4 9 Noroeste 22 Noroeste 0 -- -- 58
2018-01-13 13:00:00 7.4 15 Noroeste 22 Noroeste 0 -- -- 58
2018-01-13 12:00:00 6.3 10 Noroeste 22 Noroeste 0 -- -- 63
2018-01-13 11:00:00 5.8 8 Noroeste 14 Oeste 0 -- -- 60
2018-01-13 10:00:00 5.8 5 Noroeste 12 Noroeste 0 -- -- 53
2018-01-13 09:00:00 5.2 5 Norte 14 Noroeste 0 -- -- 51
2018-01-13 08:00:00 6.4 5 Noroeste 12 Noroeste 0 -- -- 50
2018-01-13 07:00:00 5.9 6 Noroeste 13 Oeste 0 -- -- 53
2018-01-13 06:00:00 5.2 3 Nordeste 11 Noroeste 0 -- -- 56
2018-01-13 05:00:00 6.1 3 Noroeste 7 Noroeste 0 -- -- 54
2018-01-13 04:00:00 7.1 6 Noroeste 9 Noroeste 0 -- -- 53
2018-01-13 03:00:00 6.2 5 Este 9 Este 0 -- -- 54
2018-01-13 02:00:00 7.7 0 Calma 3 Nordeste 0 -- -- 50
2018-01-13 01:00:00 7.4 0 Calma 4 Este 0 -- -- 50
2018-01-13 00:00:00 7.5 2 Norte 10 Nordeste 0 -- -- 49
2018-01-12 23:00:00 7.3 3 Este 6 Este 0 -- -- 48
2018-01-12 22:00:00 7.4 0 Calma 8 Este 0 -- -- 56
2018-01-12 21:00:00 5.4 6 Este 14 Este 0 -- -- 74
2018-01-12 20:00:00 5.9 9 Este 15 Este 0 -- -- 73
2018-01-12 19:00:00 6.5 2 Norte 15 Este 0 -- -- 70
2018-01-12 18:00:00 8.2 0 Calma 10 Noroeste 0 -- -- 60
2018-01-12 17:00:00 10.6 5 Oeste 12 Noroeste 0 -- -- 51
2018-01-12 16:00:00 11.3 6 Oeste 13 Oeste 0 -- -- 47
2018-01-12 15:00:00 10.9 5 Noroeste 15 Oeste 0 -- -- 46
2018-01-12 14:00:00 11.1 5 Nordeste 22 Este 0 -- -- 47
2018-01-12 13:00:00 8.7 15 Nordeste 24 Este 0 -- -- 56
2018-01-12 12:00:00 8.2 15 Este 24 Este 0 -- -- 59
2018-01-12 11:00:00 7.4 12 Este 17 Este 0 -- -- 67
2018-01-12 10:00:00 5.2 5 Este 12 Este 0 -- -- 73
2018-01-12 09:00:00 2.7 11 Este 13 Este 0 -- -- 84
2018-01-12 08:00:00 2.9 12 Este 13 Este 0 -- -- 78
2018-01-12 07:00:00 3.9 4 Este 6 Este 0 -- -- 70
2018-01-12 06:00:00 4.7 0 Calma 5 Nordeste 0 -- -- 73
2018-01-12 05:00:00 3.9 4 Nordeste 8 Este 0 -- -- 78
2018-01-12 04:00:00 4.9 2 Norte 10 Norte 0 -- -- 66
2018-01-12 03:00:00 5.5 2 Nordeste 6 Nordeste 0 -- -- 58
2018-01-12 02:00:00 5.5 3 Nordeste 6 Nordeste 0 -- -- 58
2018-01-12 01:00:00 5.7 0 Calma 5 Este 0 -- -- 59
2018-01-12 00:00:00 5.8 0 Calma 5 Sudeste 0 -- -- 60
2018-01-11 23:00:00 5.7 2 Este 5 Este 0 -- -- 65
2018-01-11 22:00:00 5.8 2 Sudeste 5 Norte 0 -- -- 78
2018-01-11 21:00:00 5.6 0 Calma 4 Sudeste 0 -- -- 84
2018-01-11 20:00:00 6 0 Calma 12 Noroeste 0 -- -- 86
2018-01-11 19:00:00 6.3 5 Noroeste 14 Oeste 0 -- -- 84
2018-01-11 18:00:00 6.9 12 Noroeste 22 Oeste 0 -- -- 79
2018-01-11 17:00:00 7.7 14 Noroeste 27 Noroeste 0 -- -- 77
2018-01-11 16:00:00 7.9 19 Noroeste 31 Noroeste 0 -- -- 75
2018-01-11 15:00:00 6.8 13 Oeste 25 Oeste 0.1 -- -- 85
2018-01-11 14:00:00 6.7 14 Oeste 30 Oeste 0 -- -- 82
2018-01-11 13:00:00 5.7 16 Oeste 29 Oeste 0 -- -- 89
2018-01-11 12:00:00 5.5 14 Oeste 24 Oeste 0 -- -- 87
2018-01-11 11:00:00 5 11 Oeste 19 Oeste 0 -- -- 89
2018-01-11 10:00:00 4.5 6 Noroeste 15 Oeste 0 -- -- 91
2018-01-11 09:00:00 4.3 8 Noroeste 18 Oeste 0 -- -- 88
2018-01-11 08:00:00 3.9 5 Noroeste 11 Noroeste 0 -- -- 86
2018-01-11 07:00:00 3.9 5 Noroeste 14 Noroeste 0 -- -- 89
2018-01-11 06:00:00 3.8 7 Noroeste 15 Noroeste 0 -- -- 99
2018-01-11 05:00:00 4.2 6 Noroeste 13 Noroeste 0 -- -- 97
2018-01-11 04:00:00 4.6 9 Noroeste 23 Oeste 0 -- -- 97
2018-01-11 03:00:00 5.8 14 Oeste 23 Oeste 0 -- -- 97
2018-01-11 02:00:00 6 10 Noroeste 22 Oeste 0 -- -- 99
2018-01-11 01:00:00 6.4 12 Noroeste 23 Noroeste 0 -- -- 99
2018-01-11 00:00:00 6.1 8 Oeste 26 Noroeste 0 -- -- 99
2018-01-10 23:00:00 7.2 11 Oeste 40 Noroeste 0 -- -- 99
2018-01-10 22:00:00 8.4 21 Noroeste 57 Oeste 2.9 -- -- 99
2018-01-10 21:00:00 9.1 28 Oeste 59 Oeste 1 -- -- 99
2018-01-10 20:00:00 9.2 27 Oeste 50 Sudoeste 0 -- -- 94
2018-01-10 19:00:00 9.3 24 Oeste 42 Oeste 0 -- -- 86
2018-01-10 18:00:00 9.1 20 Oeste 32 Oeste 0 -- -- 84
2018-01-10 17:00:00 8.9 19 Oeste 33 Oeste 0 -- -- 85
2018-01-10 16:00:00 9 19 Oeste 35 Oeste 0 -- -- 86
2018-01-10 15:00:00 9 17 Oeste 27 Oeste 0 -- -- 89
2018-01-10 14:00:00 8.8 15 Oeste 27 Oeste 0 -- -- 86
2018-01-10 13:00:00 8.4 16 Oeste 29 Oeste 0 -- -- 95
2018-01-10 12:00:00 7.7 13 Oeste 27 Oeste 0 -- -- 99
2018-01-10 11:00:00 6.7 12 Noroeste 20 Oeste 0 -- -- 99
2018-01-10 10:00:00 6.3 8 Noroeste 15 Noroeste 0 -- -- 99
2018-01-10 09:00:00 6.4 6 Oeste 26 Noroeste 0 -- -- 99
2018-01-10 08:00:00 7.1 15 Oeste 28 Oeste 0.2 -- -- 99
2018-01-10 07:00:00 7.8 21 Oeste 33 Noroeste 0.2 -- -- 99
2018-01-10 06:00:00 8 23 Oeste 39 Oeste 0 -- -- 99
2018-01-10 05:00:00 8.1 26 Oeste 44 Oeste 0.9 -- -- 99
2018-01-10 04:00:00 8.3 24 Oeste 48 Oeste 1.9 -- -- 99
2018-01-10 03:00:00 9.6 26 Oeste 54 Sudoeste 1.2 -- -- 88
2018-01-10 02:00:00 10.1 24 Oeste 49 Oeste 0.2 -- -- 88
2018-01-10 01:00:00 10.7 25 Oeste 49 Sudoeste 0.2 -- -- 86
2018-01-10 00:00:00 9.9 23 Sudoeste 45 Sudoeste 0.2 -- -- 83
2018-01-09 23:00:00 8.7 17 Sudoeste 34 Sur 0 -- -- 81
2018-01-09 22:00:00 8.5 15 Sudoeste 33 Sudoeste 0 -- -- 77
2018-01-09 21:00:00 9.2 18 Sudoeste 39 Oeste 0.1 -- -- 73
2018-01-09 20:00:00 7.9 8 Sudoeste 24 Sudoeste 0.7 -- -- 79
2018-01-09 19:00:00 7.9 13 Sudoeste 32 Oeste 0 -- -- 74
2018-01-09 18:00:00 8.3 17 Oeste 31 Oeste 0 -- -- 73
2018-01-09 17:00:00 7.5 7 Sudoeste 31 Oeste 0 -- -- 73
2018-01-09 16:00:00 7.3 19 Oeste 34 Oeste 0 -- -- 71
2018-01-09 15:00:00 7 23 Oeste 37 Oeste 0 -- -- 70
2018-01-09 14:00:00 6.4 15 Oeste 27 Oeste 0 -- -- 73
2018-01-09 13:00:00 6 13 Oeste 24 Oeste 0 -- -- 77
2018-01-09 12:00:00 5.6 4 Oeste 18 Noroeste 0 -- -- 73
2018-01-09 11:00:00 4.9 6 Oeste 16 Noroeste 0 -- -- 83
2018-01-09 10:00:00 4.1 6 Noroeste 12 Noroeste 0 -- -- 84
2018-01-09 09:00:00 3.2 6 Noroeste 19 Noroeste 0 -- -- 97
2018-01-09 08:00:00 2.4 5 Noroeste 12 Noroeste 0 -- -- 99
2018-01-09 07:00:00 1.6 6 Norte 12 Noroeste 0 -- -- 99
2018-01-09 06:00:00 1.9 6 Norte 15 Noroeste 0 -- -- 99
2018-01-09 05:00:00 1.8 2 Noroeste 11 Noroeste 0 -- -- 99
2018-01-09 04:00:00 2.1 6 Norte 11 Norte 0 -- -- 98
2018-01-09 03:00:00 2.8 5 Norte 10 Noroeste 0 -- -- 92
2018-01-09 02:00:00 3.1 5 Norte 9 Noroeste 0 -- -- 88
2018-01-09 01:00:00 3 3 Noroeste 7 Noroeste 0 -- -- 82
2018-01-09 00:00:00 3.7 0 Calma 7 Este 0 -- -- 81
2018-01-08 23:00:00 3.2 6 Sudeste 8 Este 0 -- -- 84
2018-01-08 22:00:00 4.1 6 Este 8 Sudeste 0 -- -- 85
2018-01-08 21:00:00 4 6 Sudeste 11 Sudeste 0 -- -- 87
2018-01-08 20:00:00 4 7 Sudeste 12 Sudeste 0 -- -- 89
2018-01-08 19:00:00 4.3 6 Sudeste 10 Sudeste 0 -- -- 89
2018-01-08 18:00:00 4.5 7 Sudeste 15 Sudeste 0.1 -- -- 87
2018-01-08 17:00:00 5.3 8 Este 16 Este 0.4 -- -- 79
2018-01-08 16:00:00 6.3 0 Calma 13 Este 0 -- -- 68
2018-01-08 15:00:00 6.6 3 Este 12 Este 0 -- -- 67
2018-01-08 14:00:00 6.7 4 Nordeste 11 Nordeste 0 -- -- 70
2018-01-08 13:00:00 5.7 6 Este 13 Este 0 -- -- 77
2018-01-08 12:00:00 4.3 3 Oeste 8 Oeste 0 -- -- 80
2018-01-08 11:00:00 3.6 0 Calma 21 Este 0 -- -- 86
2018-01-08 10:00:00 3.9 11 Este 23 Sudeste 0 -- -- 79
2018-01-08 09:00:00 2.5 13 Este 17 Este 0 -- -- 89
2018-01-08 08:00:00 2.4 10 Este 17 Este 0 -- -- 94
2018-01-08 07:00:00 2.6 8 Este 14 Este 0 -- -- 93
2018-01-08 06:00:00 1.9 7 Nordeste 17 Este 0.2 -- -- 99
2018-01-08 05:00:00 2 12 Este 15 Este 0.1 -- -- 99
2018-01-08 04:00:00 2.1 0 Calma 9 Noroeste 0.8 -- -- 96
2018-01-08 03:00:00 2.4 4 Noroeste 7 Noroeste 0.1 -- -- 93
2018-01-08 02:00:00 2.2 0 Calma 9 Noroeste 0 -- -- 96
2018-01-08 01:00:00 2.6 0 Calma 6 Oeste 0 -- -- 92
2018-01-08 00:00:00 2.4 3 Sudeste 6 Noroeste 0 -- -- 94
2018-01-07 23:00:00 2.6 0 Calma 6 Noroeste 0 -- -- 90
2018-01-07 22:00:00 2.4 0 Calma 7 Este 0 -- -- 92
2018-01-07 21:00:00 1.8 0 Calma 15 Noroeste 0 -- -- 96
2018-01-07 20:00:00 2.3 8 Noroeste 18 Oeste 0 -- -- 88
2018-01-07 19:00:00 2 6 Norte 20 Sudoeste 0 -- -- 91
2018-01-07 18:00:00 2.7 12 Oeste 22 Oeste 0 -- -- 81
2018-01-07 17:00:00 2.8 10 Noroeste 17 Noroeste 0 -- -- 78
2018-01-07 16:00:00 2.8 10 Oeste 24 Oeste 0 -- -- 78
2018-01-07 15:00:00 2.5 12 Oeste 24 Oeste 0 -- -- 80
2018-01-07 14:00:00 2.6 14 Oeste 24 Oeste 0 -- -- 80
2018-01-07 13:00:00 2.3 9 Oeste 19 Oeste 0 -- -- 80
2018-01-07 12:00:00 1.8 8 Oeste 17 Oeste 0 -- -- 86
2018-01-07 11:00:00 1.4 10 Noroeste 23 Oeste 0 -- -- 85
2018-01-07 10:00:00 1.1 12 Noroeste 25 Oeste 0 -- -- 83
2018-01-07 09:00:00 0.5 11 Oeste 24 Oeste 0 -- -- 84
2018-01-07 08:00:00 0.3 10 Oeste 22 Oeste 0 -- -- 83
2018-01-07 07:00:00 0.5 9 Noroeste 23 Oeste 0 -- -- 80
2018-01-07 06:00:00 0.9 14 Oeste 26 Oeste 0 -- -- 78
2018-01-07 05:00:00 0.9 10 Oeste 26 Oeste 0 -- -- 78
2018-01-07 04:00:00 1.1 14 Oeste 26 Oeste 0 -- -- 75
2018-01-07 03:00:00 1.3 15 Oeste 26 Oeste 0 -- -- 73
2018-01-07 02:00:00 1.8 14 Oeste 24 Oeste 0 -- -- 71
2018-01-07 01:00:00 2.1 14 Oeste 27 Oeste 0 -- -- 68
2018-01-07 00:00:00 2.9 16 Oeste 29 Oeste 0 -- -- 65
2018-01-06 23:00:00 3.2 12 Oeste 24 Oeste 0 -- -- 68
2018-01-06 22:00:00 3.9 15 Oeste 25 Oeste 0 -- -- 67
2018-01-06 21:00:00 4.2 15 Noroeste 25 Noroeste 0 -- -- 69
2018-01-06 20:00:00 3.9 10 Noroeste 19 Noroeste 0 -- -- 78
2018-01-06 19:00:00 4.2 12 Noroeste 22 Oeste 0 -- -- 82
2018-01-06 18:00:00 4.9 18 Oeste 28 Oeste 0 -- -- 85
2018-01-06 17:00:00 5.4 15 Oeste 24 Oeste 0 -- -- 86
2018-01-06 16:00:00 5.1 16 Oeste 24 Noroeste 0 -- -- 99
2018-01-06 15:00:00 3.8 12 Noroeste 27 Oeste 0.1 -- -- 99
2018-01-06 14:00:00 3.2 15 Noroeste 29 Noroeste 0.4 -- -- 99
2018-01-06 13:00:00 2.7 14 Oeste 23 Oeste 1.3 -- -- 99
2018-01-06 12:00:00 1.7 3 Noroeste 12 Sudoeste 1.9 -- -- 99
2018-01-06 11:00:00 1.4 7 Oeste 19 Oeste 2.9 -- -- 99
2018-01-06 10:00:00 1.6 8 Noroeste 21 Noroeste 5.5 -- -- 99
2018-01-06 09:00:00 2.9 8 Norte 18 Noroeste 5.3 -- -- 99
2018-01-06 08:00:00 4.6 6 Norte 26 Oeste 2.7 -- -- 99
2018-01-06 07:00:00 4.8 12 Oeste 27 Oeste 4.7 -- -- 99
2018-01-06 06:00:00 5.3 17 Oeste 33 Oeste 7.7 -- -- 99
2018-01-06 05:00:00 6.6 17 Oeste 50 Oeste 0 -- -- 99
2018-01-06 04:00:00 10 18 Sudoeste 45 Sudoeste 0 -- -- 61
2018-01-06 03:00:00 10.1 22 Sudoeste 41 Sudoeste 0 -- -- 63
2018-01-06 02:00:00 9.9 21 Sudoeste 42 Sudoeste 0 -- -- 64
2018-01-06 01:00:00 10.3 22 Sudoeste 46 Sudoeste 0 -- -- 59
2018-01-06 00:00:00 10.5 24 Sudoeste 49 Oeste 0 -- -- 58
2018-01-05 23:00:00 11 24 Sudoeste 45 Sudoeste 0 -- -- 57
2018-01-05 22:00:00 10.2 22 Sudoeste 46 Sudoeste 0 -- -- 56
2018-01-05 21:00:00 10.2 19 Sudoeste 37 Sur 0 -- -- 61
2018-01-05 20:00:00 10.8 22 Oeste 40 Sudoeste 0 -- -- 56
2018-01-05 19:00:00 9.8 12 Oeste 39 Oeste 0 -- -- 64
2018-01-05 18:00:00 10.3 20 Oeste 39 Oeste 0 -- -- 61
2018-01-05 17:00:00 10.5 16 Oeste 29 Oeste 0 -- -- 64
2018-01-05 16:00:00 10.6 17 Oeste 33 Sudoeste 0 -- -- 63
2018-01-05 15:00:00 10.2 17 Oeste 30 Oeste 0 -- -- 67
2018-01-05 14:00:00 9.8 13 Oeste 29 Oeste 0 -- -- 73
2018-01-05 13:00:00 9.7 10 Oeste 18 Noroeste 0 -- -- 78
2018-01-05 12:00:00 8.9 11 Noroeste 22 Noroeste 0 -- -- 80
2018-01-05 11:00:00 8.4 16 Oeste 33 Oeste 0 -- -- 97
2018-01-05 10:00:00 8.7 12 Oeste 26 Oeste 0 -- -- 83
2018-01-05 09:00:00 8.1 14 Oeste 26 Noroeste 0 -- -- 99
2018-01-05 08:00:00 8.1 10 Oeste 21 Oeste 0 -- -- 99
2018-01-05 07:00:00 8.1 10 Oeste 16 Sudoeste 0 -- -- 99
2018-01-05 06:00:00 8.1 6 Oeste 12 Oeste 0 -- -- 99
2018-01-05 05:00:00 8.2 5 Noroeste 11 Noroeste 0 -- -- 99
2018-01-05 04:00:00 8.3 6 Oeste 10 Noroeste 0 -- -- 99
2018-01-05 03:00:00 8.5 3 Noroeste 6 Oeste 0 -- -- 99
2018-01-05 02:00:00 8.5 4 Noroeste 12 Noroeste 0 -- -- 99
2018-01-05 01:00:00 8.6 0 Calma 10 Noroeste 0 -- -- 99
2018-01-05 00:00:00 8.8 4 Norte 9 Noroeste 0 -- -- 99
2018-01-04 23:00:00 9.1 2 Nordeste 6 Oeste 0 -- -- 99
2018-01-04 22:00:00 9.1 3 Este 6 Sudeste 0 -- -- 99
2018-01-04 21:00:00 9.1 0 Calma 7 Noroeste 0 -- -- 99
2018-01-04 20:00:00 9.3 6 Norte 10 Norte 0 -- -- 99
2018-01-04 19:00:00 9.5 4 Sudeste 11 Sudeste 0 -- -- 99
2018-01-04 18:00:00 9.1 8 Sudeste 15 Sudeste 0 -- -- 99
2018-01-04 17:00:00 9.2 5 Sudeste 10 Este 0 -- -- 99
2018-01-04 16:00:00 9.2 4 Sudeste 12 Sudeste 0 -- -- 99
2018-01-04 15:00:00 9.3 7 Sudeste 12 Sudeste 0 -- -- 99
2018-01-04 14:00:00 9.2 0 Calma 9 Sudeste 0 -- -- 99
2018-01-04 13:00:00 9.4 5 Este 15 Sudeste 0 -- -- 99
2018-01-04 12:00:00 8.9 6 Sudeste 13 Sudeste 0 -- -- 99
2018-01-04 11:00:00 8.1 8 Sudeste 17 Nordeste 0 -- -- 99
2018-01-04 10:00:00 6.8 10 Este 18 Este 0 -- -- 99
2018-01-04 09:00:00 6.5 8 Este 17 Este 0 -- -- 99
2018-01-04 08:00:00 6.8 6 Este 23 Este 0 -- -- 99
2018-01-04 07:00:00 7 14 Este 24 Sudeste 0 -- -- 99
2018-01-04 06:00:00 6.9 15 Este 28 Este 0 -- -- 99
2018-01-04 05:00:00 6.7 8 Este 21 Nordeste 0 -- -- 99
2018-01-04 04:00:00 7.2 14 Nordeste 26 Este 0 -- -- 99
2018-01-04 03:00:00 7.9 23 Sudeste 42 Este 0 -- -- 99
2018-01-04 02:00:00 8 15 Sudeste 28 Sudeste 0 -- -- 99
2018-01-04 01:00:00 8.1 6 Sur 15 Sur 0 -- -- 99
2018-01-04 00:00:00 7.9 7 Este 13 Nordeste 0 -- -- 99
2018-01-03 23:00:00 7.2 5 Nordeste 10 Norte 0 -- -- 98
2018-01-03 22:00:00 7.8 8 Este 22 Sudeste 0 -- -- 96
2018-01-03 21:00:00 8.4 12 Sudeste 22 Sudeste 0 -- -- 94
2018-01-03 20:00:00 8.3 9 Sudeste 15 Sudeste 0 -- -- 94
2018-01-03 19:00:00 8.8 10 Sudeste 14 Sudeste 0 -- -- 90
2018-01-03 18:00:00 9.3 4 Sudeste 14 Sudeste 0 -- -- 88
2018-01-03 17:00:00 9.7 2 Nordeste 11 Nordeste 0 -- -- 86
2018-01-03 16:00:00 10.5 4 Nordeste 10 Este 0 -- -- 81
2018-01-03 15:00:00 11.4 4 Norte 18 Sudeste 0 -- -- 80
2018-01-03 14:00:00 9.9 4 Sur 23 Sudeste 0 -- -- 89
2018-01-03 13:00:00 9.6 9 Sudeste 22 Sudeste 0 -- -- 92
2018-01-03 12:00:00 9.4 11 Sudeste 24 Sudeste 0 -- -- 92
2018-01-03 11:00:00 9.4 7 Este 21 Sudeste 0 -- -- 93
2018-01-03 10:00:00 8.8 15 Sudeste 22 Sudeste 0 -- -- 96
2018-01-03 09:00:00 8.2 13 Sudeste 22 Sudeste 0 -- -- 97
2018-01-03 08:00:00 7.8 14 Sudeste 17 Sudeste 0 -- -- 95
2018-01-03 07:00:00 7.9 5 Sudeste 12 Sudeste 0 -- -- 94
2018-01-03 06:00:00 7.5 8 Sudeste 11 Sudeste 0 -- -- 94
2018-01-03 05:00:00 7.4 5 Este 11 Este 0 -- -- 92
2018-01-03 04:00:00 7.9 4 Sudeste 8 Sudeste 0 -- -- 90
2018-01-03 03:00:00 7.8 0 Calma 11 Sudeste 0 -- -- 89
2018-01-03 02:00:00 7.8 3 Este 14 Sudeste 0 -- -- 86
2018-01-03 01:00:00 7.8 6 Sudeste 12 Este 0 -- -- 83
2018-01-03 00:00:00 8.5 5 Este 13 Nordeste 0 -- -- 81
2018-01-02 23:00:00 8.1 8 Sudeste 13 Sudeste 0 -- -- 81
2018-01-02 22:00:00 8.2 9 Sudeste 14 Sudeste 0 -- -- 80
2018-01-02 21:00:00 8.3 10 Sudeste 17 Sudeste 0 -- -- 78
2018-01-02 20:00:00 8.6 11 Sudeste 15 Sudeste 0 -- -- 75
2018-01-02 19:00:00 8.6 9 Sudeste 15 Sudeste 0 -- -- 71
2018-01-02 18:00:00 10.1 8 Este 17 Sudeste 0 -- -- 63
2018-01-02 17:00:00 10.9 13 Sudeste 22 Este 0 -- -- 61
2018-01-02 16:00:00 12.3 6 Sudeste 15 Sur 0 -- -- 59
2018-01-02 15:00:00 11.2 8 Nordeste 18 Sudeste 0 -- -- 61
2018-01-02 14:00:00 11.4 5 Sudeste 21 Sudeste 0 -- -- 62
2018-01-02 13:00:00 10.3 8 Sudeste 21 Este 0 -- -- 65
2018-01-02 12:00:00 10.8 9 Sudeste 15 Sudeste 0 -- -- 66
2018-01-02 11:00:00 9.9 4 Nordeste 10 Sudeste 0 -- -- 69
2018-01-02 10:00:00 7.9 5 Sudeste 9 Sudeste 0 -- -- 85
2018-01-02 09:00:00 5.9 9 Este 13 Este 0 -- -- 92
2018-01-02 08:00:00 5.2 7 Este 11 Este 0 -- -- 93
2018-01-02 07:00:00 5.3 5 Este 12 Este 0 -- -- 89
2018-01-02 06:00:00 5.5 9 Este 12 Este 0 -- -- 88
2018-01-02 05:00:00 5.8 7 Este 9 Sudeste 0 -- -- 85
2018-01-02 04:00:00 5.7 6 Este 13 Sudeste 0 -- -- 83
2018-01-02 03:00:00 6.3 8 Sudeste 12 Sudeste 0 -- -- 75
2018-01-02 02:00:00 6.7 6 Sudeste 10 Sudeste 0 -- -- 70
2018-01-02 01:00:00 6.9 4 Este 10 Este 0 -- -- 67
2018-01-02 00:00:00 6.9 9 Sudeste 12 Este 0 -- -- 61
2018-01-01 23:00:00 6.5 8 Este 13 Sudeste 0 -- -- 59
2018-01-01 22:00:00 7.2 6 Este 14 Norte 0 -- -- 54
2018-01-01 21:00:00 8.4 6 Norte 10 Norte 0 -- -- 46
2018-01-01 20:00:00 8.8 0 Calma 4 Noroeste 0 -- -- 33
2018-01-01 19:00:00 9.6 0 Calma 3 Nordeste 0 -- -- 29
2018-01-01 18:00:00 11 2 Oeste 9 Sur 0 -- -- 40
2018-01-01 17:00:00 11.7 4 Noroeste 22 Norte 0 -- -- 50
2018-01-01 16:00:00 12.7 9 Noroeste 14 Noroeste 0 -- -- 53
2018-01-01 15:00:00 12.5 8 Noroeste 14 Noroeste 0 -- -- 54
2018-01-01 14:00:00 11.8 10 Noroeste 15 Noroeste 0 -- -- 55
2018-01-01 13:00:00 12.3 4 Oeste 9 Oeste 0 -- -- 36
2018-01-01 12:00:00 10.9 0 Calma 8 Noroeste 0 -- -- 41
2018-01-01 11:00:00 8.2 4 Oeste 21 Este 0 -- -- 53
2018-01-01 10:00:00 7.7 4 Este 8 Sudeste 0 -- -- 53
2018-01-01 09:00:00 5.9 0 Calma 5 Nordeste 0 -- -- 52
2018-01-01 08:00:00 6 0 Calma 19 Este 0 -- -- 47
2018-01-01 07:00:00 6.4 14 Este 26 Sudeste 0 -- -- 58
2018-01-01 06:00:00 5.3 13 Sudeste 18 Sudeste 0 -- -- 73
2018-01-01 05:00:00 5.6 12 Sudeste 19 Sudeste 0 -- -- 86
2018-01-01 04:00:00 6.4 14 Sudeste 22 Sudeste 0 -- -- 89
2018-01-01 03:00:00 6.5 5 Este 9 Este 0 -- -- 88
2018-01-01 02:00:00 7.2 2 Nordeste 7 Norte 0 -- -- 89
2018-01-01 01:00:00 7.2 0 Calma 6 Noroeste 0 -- -- 92
2018-01-01 00:00:00 7.4 0 Calma 6 Noroeste 0 -- -- 99
2017-12-31 23:00:00 8.4 0 Calma 26 Noroeste 0 -- -- 99
2017-12-31 22:00:00 10.2 17 Noroeste 38 Noroeste 0 -- -- 99
2017-12-31 21:00:00 10.1 19 Oeste 36 Oeste 0 -- -- 98
2017-12-31 20:00:00 10.2 22 Oeste 35 Oeste 0 -- -- 92
2017-12-31 19:00:00 10.3 19 Oeste 31 Oeste 0 -- -- 87
2017-12-31 18:00:00 10.2 21 Oeste 31 Oeste 0 -- -- 82
2017-12-31 17:00:00 10.1 18 Oeste 27 Oeste 0 -- -- 89
2017-12-31 16:00:00 10.3 15 Noroeste 38 Oeste 0 -- -- 88
2017-12-31 15:00:00 10.4 21 Noroeste 32 Oeste 0 -- -- 92
2017-12-31 14:00:00 10.4 18 Noroeste 31 Oeste 0 -- -- 99
2017-12-31 13:00:00 10.2 15 Oeste 23 Oeste 0 -- -- 99
2017-12-31 12:00:00 9.5 13 Noroeste 23 Oeste 0 -- -- 99
2017-12-31 11:00:00 9.3 11 Oeste 21 Noroeste 0 -- -- 99
2017-12-31 10:00:00 8.8 11 Noroeste 22 Noroeste 0 -- -- 99
2017-12-31 09:00:00 9.5 13 Noroeste 25 Noroeste 0 -- -- 99
2017-12-31 08:00:00 9.1 12 Noroeste 19 Noroeste 0 -- -- 94
2017-12-31 07:00:00 9.5 4 Noroeste 12 Noroeste 0 -- -- 86
2017-12-31 06:00:00 9.8 5 Noroeste 10 Noroeste 0 -- -- 84
2017-12-31 05:00:00 10.6 4 Noroeste 12 Noroeste 0 -- -- 80
2017-12-31 04:00:00 10.6 5 Noroeste 9 Noroeste 0 -- -- 86
2017-12-31 03:00:00 11.1 5 Noroeste 9 Norte 0 -- -- 87
2017-12-31 02:00:00 10.7 0 Calma 6 Noroeste 0 -- -- 88
2017-12-31 01:00:00 11.7 0 Calma 4 Sudeste 0 -- -- 81